createdAt,value
2023-05-09T00:01:25.217Z,52.80
2023-05-09T00:03:52.316Z,52.72
2023-05-09T00:06:19.782Z,53.10
2023-05-09T00:08:46.749Z,52.91
2023-05-09T00:11:13.931Z,52.74
2023-05-09T00:13:41.979Z,52.73
2023-05-09T00:16:09.296Z,52.60
2023-05-09T00:18:37.511Z,52.86
2023-05-09T00:21:04.879Z,53.00
2023-05-09T00:23:31.687Z,53.71
2023-05-09T00:25:59.601Z,53.20
2023-05-09T00:28:27.232Z,53.44
2023-05-09T00:30:54.115Z,53.23
2023-05-09T00:33:21.001Z,53.29
2023-05-09T00:35:47.946Z,53.39
2023-05-09T00:38:14.833Z,52.78
2023-05-09T00:40:41.700Z,53.64
2023-05-09T00:43:08.645Z,53.25
2023-05-09T00:45:35.648Z,52.56
2023-05-09T00:48:03.404Z,53.00
2023-05-09T00:50:31.214Z,53.41
2023-05-09T00:52:58.862Z,53.35
2023-05-09T00:55:27.267Z,54.44
2023-05-09T00:57:54.107Z,53.84
2023-05-09T01:00:21.166Z,53.80
2023-05-09T01:02:56.301Z,54.48
2023-05-09T01:05:29.232Z,54.41
2023-05-09T01:08:17.387Z,54.66
2023-05-09T01:10:58.361Z,54.91
2023-05-09T01:13:39.797Z,54.94
2023-05-09T01:16:17.827Z,54.57
2023-05-09T01:19:23.124Z,55.20
2023-05-09T01:21:51.445Z,54.86
2023-05-09T01:24:56.374Z,55.20
2023-05-09T01:27:45.240Z,54.95
2023-05-09T01:30:13.949Z,54.96
2023-05-09T01:32:43.355Z,54.85
2023-05-09T01:35:14.768Z,55.66
2023-05-09T01:37:44.613Z,55.09
2023-05-09T01:40:14.964Z,55.39
2023-05-09T01:42:49.786Z,55.61
2023-05-09T01:45:19.203Z,55.46
2023-05-09T01:47:48.994Z,55.35
2023-05-09T01:50:18.047Z,55.55
2023-05-09T01:52:48.622Z,55.50
2023-05-09T01:55:19.736Z,56.30
2023-05-09T01:57:47.626Z,56.04
2023-05-09T02:00:15.165Z,55.71
2023-05-09T02:02:44.450Z,55.89
2023-05-09T02:05:12.448Z,55.53
2023-05-09T02:07:41.750Z,55.53
2023-05-09T02:10:10.280Z,55.75
2023-05-09T02:12:38.324Z,55.35
2023-05-09T02:15:06.625Z,55.66
2023-05-09T02:17:33.687Z,56.09
2023-05-09T02:20:00.553Z,56.30
2023-05-09T02:22:28.053Z,56.03
2023-05-09T02:24:54.958Z,56.46
2023-05-09T02:27:22.225Z,56.19
2023-05-09T02:29:51.799Z,55.96
2023-05-09T02:32:25.518Z,56.04
2023-05-09T02:34:54.022Z,56.42
2023-05-09T02:37:21.484Z,56.82
2023-05-09T02:39:48.594Z,56.62
2023-05-09T02:42:21.296Z,56.46
2023-05-09T02:44:48.010Z,56.32
2023-05-09T02:47:15.973Z,56.05
2023-05-09T02:49:42.774Z,56.33
2023-05-09T02:52:09.627Z,56.33
2023-05-09T02:54:36.436Z,57.03
2023-05-09T02:57:03.562Z,56.94
2023-05-09T02:59:30.511Z,56.97
2023-05-09T03:02:01.156Z,56.99
2023-05-09T03:04:28.917Z,57.00
2023-05-09T03:06:55.675Z,56.91
2023-05-09T03:09:23.788Z,56.71
2023-05-09T03:11:50.710Z,56.72
2023-05-09T03:14:17.588Z,57.09
2023-05-09T03:16:44.377Z,56.83
2023-05-09T03:19:20.533Z,57.19
2023-05-09T03:21:47.287Z,56.75
2023-05-09T03:24:14.213Z,57.02
2023-05-09T03:26:41.004Z,57.20
2023-05-09T03:29:07.893Z,57.23
2023-05-09T03:31:34.867Z,56.39
2023-05-09T03:34:01.718Z,56.53
2023-05-09T03:36:28.859Z,56.27
2023-05-09T03:38:56.159Z,56.12
2023-05-09T03:41:23.433Z,56.61
2023-05-09T03:43:50.283Z,56.71
2023-05-09T03:46:17.106Z,56.97
2023-05-09T03:48:46.264Z,57.40
2023-05-09T03:51:13.793Z,56.74
2023-05-09T03:53:41.990Z,56.48
2023-05-09T03:56:09.522Z,55.97
2023-05-09T03:58:44.234Z,56.19
2023-05-09T04:01:12.797Z,56.08
2023-05-09T04:03:40.489Z,56.55
2023-05-09T04:06:07.898Z,56.39
2023-05-09T04:08:37.978Z,55.32
2023-05-09T04:11:06.104Z,55.14
2023-05-09T04:13:33.980Z,55.20
2023-05-09T04:16:05.411Z,54.31
2023-05-09T04:18:33.735Z,53.90
2023-05-09T04:21:00.528Z,53.98
2023-05-09T04:23:27.461Z,53.12
2023-05-09T04:25:57.660Z,52.89
2023-05-09T04:28:25.075Z,53.39
2023-05-09T04:30:52.253Z,52.62
2023-05-09T04:33:20.144Z,52.26
2023-05-09T04:35:48.698Z,51.19
2023-05-09T04:38:16.696Z,49.51
2023-05-09T04:40:43.686Z,49.27
2023-05-09T04:43:10.657Z,48.42
2023-05-09T04:45:37.372Z,47.89
2023-05-09T04:48:04.682Z,46.72
2023-05-09T04:50:31.625Z,46.13
2023-05-09T04:52:58.304Z,46.02
2023-05-09T04:55:25.194Z,44.12
2023-05-09T04:57:53.057Z,43.47
2023-05-09T05:00:20.098Z,43.10
2023-05-09T05:02:48.450Z,43.13
2023-05-09T05:05:15.436Z,43.03
2023-05-09T05:07:43.501Z,42.91
2023-05-09T05:10:13.725Z,41.79
2023-05-09T05:12:43.982Z,40.55
2023-05-09T05:15:13.794Z,39.44
2023-05-09T05:17:43.404Z,40.00
2023-05-09T05:20:10.831Z,39.13
2023-05-09T05:22:42.245Z,37.53
2023-05-09T05:25:09.420Z,38.47
2023-05-09T05:27:37.555Z,38.26
2023-05-09T05:30:05.213Z,37.72
2023-05-09T05:32:32.229Z,34.86
2023-05-09T05:34:59.395Z,34.91
2023-05-09T05:37:26.452Z,34.90
2023-05-09T05:39:53.324Z,34.52
2023-05-09T05:42:20.196Z,34.10
2023-05-09T05:44:46.997Z,34.25
2023-05-09T05:47:13.769Z,33.28
2023-05-09T05:49:41.669Z,32.91
2023-05-09T05:52:09.324Z,33.81
2023-05-09T05:54:36.881Z,31.83
2023-05-09T05:57:03.744Z,31.78
2023-05-09T05:59:30.820Z,31.68
2023-05-09T06:01:57.727Z,33.51
2023-05-09T06:04:24.977Z,33.35
2023-05-09T06:06:51.871Z,32.62
2023-05-09T06:09:18.694Z,31.77
2023-05-09T06:11:45.754Z,31.95
2023-05-09T06:14:12.645Z,30.52
2023-05-09T06:17:00.170Z,29.26
2023-05-09T06:19:29.907Z,30.40
2023-05-09T06:21:56.717Z,28.57
2023-05-09T06:24:35.096Z,28.78
2023-05-09T06:27:04.409Z,29.81
2023-05-09T06:29:31.198Z,28.15
2023-05-09T06:31:59.641Z,29.56
2023-05-09T06:34:26.644Z,29.70
2023-05-09T06:36:53.406Z,29.87
2023-05-09T06:39:20.383Z,30.25
2023-05-09T06:41:47.323Z,29.65
2023-05-09T06:44:23.124Z,29.55
2023-05-09T06:46:49.886Z,29.85
2023-05-09T06:49:16.588Z,29.51
2023-05-09T06:51:43.272Z,28.29
2023-05-09T06:54:10.074Z,29.39
2023-05-09T06:56:36.874Z,28.30
2023-05-09T06:59:03.603Z,27.95
2023-05-09T07:01:30.881Z,27.24
2023-05-09T07:03:59.178Z,27.41
2023-05-09T07:06:26.039Z,27.93
2023-05-09T07:08:53.232Z,28.63
2023-05-09T07:11:21.154Z,28.93
2023-05-09T07:13:48.149Z,28.61
2023-05-09T07:16:15.352Z,29.16
2023-05-09T07:18:42.082Z,28.42
2023-05-09T07:21:08.797Z,28.13
2023-05-09T07:23:35.632Z,28.67
2023-05-09T07:26:02.476Z,25.25
2023-05-09T07:28:29.245Z,25.13
2023-05-09T07:30:56.697Z,25.21
2023-05-09T07:33:23.603Z,25.17
2023-05-09T07:35:50.630Z,27.28
2023-05-09T07:38:17.390Z,27.17
2023-05-09T07:40:44.439Z,28.50
2023-05-09T07:43:11.298Z,26.29
2023-05-09T07:45:38.042Z,26.48
2023-05-09T07:48:05.145Z,24.51
2023-05-09T07:50:31.968Z,27.63
2023-05-09T07:52:59.606Z,25.12
2023-05-09T07:55:26.277Z,25.95
2023-05-09T07:57:53.007Z,23.81
2023-05-09T08:00:23.978Z,25.05
2023-05-09T08:02:52.404Z,27.21
2023-05-09T08:05:19.757Z,28.47
2023-05-09T08:07:46.606Z,26.24
2023-05-09T08:10:13.467Z,24.43
2023-05-09T08:12:41.594Z,25.39
2023-05-09T08:15:08.910Z,25.36
2023-05-09T08:17:35.705Z,25.47
2023-05-09T08:20:02.511Z,24.88
2023-05-09T08:22:29.311Z,25.67
2023-05-09T08:24:56.073Z,26.19
2023-05-09T08:27:22.822Z,26.85
2023-05-09T08:29:49.574Z,26.88
2023-05-09T08:32:16.344Z,24.59
2023-05-09T08:34:43.173Z,23.86
2023-05-09T08:37:09.916Z,23.56
2023-05-09T08:39:36.782Z,25.19
2023-05-09T08:42:03.838Z,27.69
2023-05-09T08:44:31.622Z,24.39
2023-05-09T08:47:03.589Z,25.06
2023-05-09T08:49:30.564Z,23.78
2023-05-09T08:51:57.747Z,26.52
2023-05-09T08:54:25.007Z,24.09
2023-05-09T08:56:52.462Z,23.42
2023-05-09T08:59:19.738Z,25.22
2023-05-09T09:01:47.564Z,20.89
2023-05-09T09:04:14.889Z,21.68
2023-05-09T09:06:41.893Z,24.24
2023-05-09T09:09:09.208Z,23.19
2023-05-09T09:11:37.472Z,20.66
2023-05-09T09:14:13.345Z,20.75
2023-05-09T09:16:42.840Z,20.46
2023-05-09T09:19:17.315Z,21.95
2023-05-09T09:21:46.983Z,21.06
2023-05-09T09:24:14.392Z,23.30
2023-05-09T09:26:48.623Z,20.26
2023-05-09T09:29:15.841Z,20.05
2023-05-09T09:31:47.349Z,21.43
2023-05-09T09:34:20.764Z,21.53
2023-05-09T09:36:48.571Z,22.44
2023-05-09T09:39:15.847Z,21.87
2023-05-09T09:41:44.640Z,19.27
2023-05-09T09:44:16.862Z,19.72
2023-05-09T09:46:55.700Z,19.56
2023-05-09T09:49:24.903Z,20.73
2023-05-09T09:51:53.422Z,19.49
2023-05-09T09:54:20.417Z,18.42
2023-05-09T09:56:48.941Z,18.97
2023-05-09T09:59:22.587Z,19.03
2023-05-09T10:01:58.377Z,19.09
2023-05-09T10:04:27.532Z,18.83
2023-05-09T10:07:06.041Z,21.48
2023-05-09T10:09:35.157Z,18.77
2023-05-09T10:12:04.231Z,17.93
2023-05-09T10:14:34.942Z,18.60
2023-05-09T10:17:04.201Z,18.36
2023-05-09T10:19:32.139Z,18.73
2023-05-09T10:22:06.207Z,17.84
2023-05-09T10:25:05.640Z,18.60
2023-05-09T10:27:36.058Z,17.80
2023-05-09T10:30:07.290Z,17.55
2023-05-09T10:32:52.075Z,16.81
2023-05-09T10:35:22.984Z,17.02
2023-05-09T10:37:50.113Z,19.51
2023-05-09T10:40:20.074Z,16.02
2023-05-09T10:42:47.082Z,15.41
2023-05-09T10:45:14.457Z,16.72
2023-05-09T10:47:43.294Z,16.57
2023-05-09T10:50:13.320Z,16.46
2023-05-09T10:53:08.464Z,17.44
2023-05-09T10:55:50.273Z,17.07
2023-05-09T10:58:21.379Z,16.95
2023-05-09T11:00:54.206Z,17.38
2023-05-09T11:03:23.641Z,17.41
2023-05-09T11:05:58.302Z,16.83
2023-05-09T11:08:29.263Z,14.87
2023-05-09T11:10:57.800Z,15.06
2023-05-09T11:13:25.765Z,15.70
2023-05-09T11:16:05.027Z,15.13
2023-05-09T11:18:32.987Z,13.88
2023-05-09T11:21:07.054Z,12.23
2023-05-09T11:23:34.262Z,11.25
2023-05-09T11:26:06.572Z,10.14
2023-05-09T11:28:36.734Z,9.89
2023-05-09T11:31:11.265Z,8.33
2023-05-09T11:33:39.656Z,7.63
2023-05-09T11:36:19.565Z,6.87
2023-05-09T11:38:47.838Z,4.96
2023-05-09T11:41:15.718Z,4.42
2023-05-09T11:43:44.657Z,4.44
2023-05-09T11:46:12.971Z,3.62
2023-05-09T11:48:42.321Z,3.92
2023-05-09T11:51:18.356Z,3.65
2023-05-09T11:53:49.760Z,3.17
2023-05-09T11:56:17.428Z,3.65
2023-05-09T11:58:44.429Z,4.68
2023-05-09T12:01:12.679Z,3.41
2023-05-09T12:03:45.014Z,4.09
2023-05-09T12:06:17.550Z,3.59
2023-05-09T12:08:45.858Z,5.49
2023-05-09T12:11:13.886Z,7.57
2023-05-09T12:13:50.431Z,8.90
2023-05-09T12:16:19.124Z,9.59
2023-05-09T12:18:50.651Z,10.42
2023-05-09T12:21:18.773Z,11.90
2023-05-09T12:23:51.306Z,11.99
2023-05-09T12:26:22.704Z,9.65
2023-05-09T12:28:50.611Z,7.61
2023-05-09T12:31:18.018Z,6.08
2023-05-09T12:33:45.429Z,5.09
2023-05-09T12:36:13.752Z,3.83
2023-05-09T12:38:41.256Z,3.25
2023-05-09T12:41:26.100Z,2.72
2023-05-09T12:43:57.556Z,2.26
2023-05-09T12:46:24.718Z,3.05
2023-05-09T12:48:52.018Z,2.97
2023-05-09T12:51:20.867Z,2.76
2023-05-09T12:53:48.639Z,2.74
2023-05-09T12:56:17.616Z,2.76
2023-05-09T12:58:55.132Z,3.36
2023-05-09T13:01:27.413Z,2.69
2023-05-09T13:04:03.835Z,4.82
2023-05-09T13:06:31.312Z,5.35
2023-05-09T13:09:01.248Z,6.18
2023-05-09T13:11:29.281Z,9.10
2023-05-09T13:13:56.253Z,8.60
2023-05-09T13:16:23.502Z,9.91
2023-05-09T13:18:50.460Z,11.21
2023-05-09T13:21:17.592Z,12.14
2023-05-09T13:23:45.598Z,10.83
2023-05-09T13:26:12.719Z,7.88
2023-05-09T13:28:39.606Z,8.49
2023-05-09T13:31:09.363Z,8.43
2023-05-09T13:33:36.237Z,10.23
2023-05-09T13:36:03.860Z,9.74
2023-05-09T13:38:32.295Z,11.45
2023-05-09T13:41:00.261Z,10.52
2023-05-09T13:43:27.608Z,11.50
2023-05-09T13:45:54.506Z,10.71
2023-05-09T13:48:21.845Z,10.93
2023-05-09T13:50:50.647Z,12.70
2023-05-09T13:53:17.608Z,13.76
2023-05-09T13:55:45.643Z,14.78
2023-05-09T13:58:12.787Z,14.10
2023-05-09T14:00:40.189Z,13.62
2023-05-09T14:03:07.076Z,14.64
2023-05-09T14:05:34.758Z,14.54
2023-05-09T14:08:01.931Z,14.26
2023-05-09T14:10:29.172Z,15.03
2023-05-09T14:12:57.089Z,15.22
2023-05-09T14:15:24.117Z,15.35
2023-05-09T14:17:51.043Z,16.47
2023-05-09T14:20:18.450Z,16.18
2023-05-09T14:22:45.488Z,14.23
2023-05-09T14:25:12.861Z,14.34
2023-05-09T14:27:39.669Z,13.87
2023-05-09T14:30:07.393Z,14.61
2023-05-09T14:32:34.286Z,15.00
2023-05-09T14:35:01.293Z,13.97
2023-05-09T14:37:29.557Z,14.76
2023-05-09T14:39:56.487Z,16.60
2023-05-09T14:42:23.778Z,15.46
2023-05-09T14:44:50.888Z,16.23
2023-05-09T14:47:18.006Z,16.25
2023-05-09T14:49:44.909Z,15.70
2023-05-09T14:52:12.197Z,17.81
2023-05-09T14:54:39.118Z,17.74
2023-05-09T14:57:07.652Z,15.93
2023-05-09T14:59:36.802Z,17.38
2023-05-09T15:02:04.217Z,16.42
2023-05-09T15:04:31.493Z,17.13
2023-05-09T15:06:59.258Z,16.92
2023-05-09T15:09:26.909Z,16.29
2023-05-09T15:11:55.942Z,17.05
2023-05-09T15:14:24.198Z,16.51
2023-05-09T15:16:52.362Z,17.82
2023-05-09T15:19:19.449Z,16.76
2023-05-09T15:21:46.824Z,16.85
2023-05-09T15:24:13.751Z,16.61
2023-05-09T15:26:40.720Z,16.72
2023-05-09T15:29:07.778Z,17.93
2023-05-09T15:31:36.390Z,20.50
2023-05-09T15:34:03.535Z,18.31
2023-05-09T15:36:31.124Z,19.77
2023-05-09T15:38:58.118Z,18.81
2023-05-09T15:41:25.139Z,20.61
2023-05-09T15:43:53.055Z,17.83
2023-05-09T15:46:20.158Z,18.12
2023-05-09T15:48:47.829Z,18.40
2023-05-09T15:51:16.445Z,18.55
2023-05-09T15:53:43.495Z,17.46
2023-05-09T15:56:10.648Z,16.79
2023-05-09T15:58:37.785Z,16.69
2023-05-09T16:01:06.433Z,17.04
2023-05-09T16:03:34.058Z,18.65
2023-05-09T16:06:01.458Z,18.51
2023-05-09T16:08:28.298Z,18.52
2023-05-09T16:10:55.241Z,18.48
2023-05-09T16:13:22.805Z,18.18
2023-05-09T16:15:51.142Z,19.14
2023-05-09T16:18:18.831Z,18.25
2023-05-09T16:20:45.883Z,18.53
2023-05-09T16:23:13.271Z,19.94
2023-05-09T16:25:40.139Z,20.36
2023-05-09T16:28:07.749Z,20.36
2023-05-09T16:30:34.930Z,18.89
2023-05-09T16:33:01.928Z,19.67
2023-05-09T16:35:29.248Z,19.61
2023-05-09T16:37:56.168Z,19.46
2023-05-09T16:40:23.287Z,19.50
2023-05-09T16:42:50.250Z,20.69
2023-05-09T16:45:17.367Z,20.08
2023-05-09T16:47:47.029Z,20.78
2023-05-09T16:50:14.105Z,20.58
2023-05-09T16:52:41.133Z,20.82
2023-05-09T16:55:08.743Z,20.80
2023-05-09T16:57:35.678Z,20.10
2023-05-09T17:00:02.715Z,20.32
2023-05-09T17:02:29.891Z,20.36
2023-05-09T17:04:57.796Z,20.20
2023-05-09T17:07:27.278Z,21.19
2023-05-09T17:09:54.316Z,20.75
2023-05-09T17:12:21.633Z,21.15
2023-05-09T17:14:48.847Z,22.22
2023-05-09T17:17:17.895Z,22.36
2023-05-09T17:19:46.285Z,21.88
2023-05-09T17:22:14.581Z,21.99
2023-05-09T17:24:41.865Z,23.00
2023-05-09T17:27:11.057Z,22.96
2023-05-09T17:29:38.256Z,22.57
2023-05-09T17:32:05.896Z,23.11
2023-05-09T17:34:33.783Z,23.63
2023-05-09T17:37:02.602Z,23.83
2023-05-09T17:39:29.753Z,24.20
2023-05-09T17:41:56.819Z,24.24
2023-05-09T17:44:24.232Z,24.67
2023-05-09T17:46:51.473Z,25.15
2023-05-09T17:49:18.450Z,24.99
2023-05-09T17:51:45.593Z,25.78
2023-05-09T17:54:13.052Z,25.98
2023-05-09T17:56:41.200Z,25.67
2023-05-09T17:59:08.242Z,26.03
2023-05-09T18:01:36.201Z,25.84
2023-05-09T18:04:03.605Z,26.08
2023-05-09T18:06:30.556Z,26.86
2023-05-09T18:08:57.635Z,26.46
2023-05-09T18:11:24.735Z,26.70
2023-05-09T18:13:51.902Z,26.57
2023-05-09T18:16:19.158Z,27.23
2023-05-09T18:18:46.143Z,27.18
2023-05-09T18:21:13.401Z,27.75
2023-05-09T18:23:41.199Z,27.89
2023-05-09T18:26:08.809Z,28.03
2023-05-09T18:28:41.769Z,27.92
2023-05-09T18:31:16.033Z,28.17
2023-05-09T18:33:44.821Z,28.60
2023-05-09T18:36:11.760Z,28.66
2023-05-09T18:38:39.513Z,28.76
2023-05-09T18:41:07.911Z,28.69
2023-05-09T18:43:35.902Z,28.94
2023-05-09T18:46:03.744Z,28.71
2023-05-09T18:48:31.301Z,28.79
2023-05-09T18:50:58.608Z,29.13
2023-05-09T18:53:29.419Z,28.96
2023-05-09T18:55:57.141Z,29.26
2023-05-09T18:58:24.991Z,28.97
2023-05-09T19:00:53.260Z,29.17
2023-05-09T19:03:21.308Z,29.72
2023-05-09T19:05:48.731Z,29.23
2023-05-09T19:08:16.905Z,30.09
2023-05-09T19:10:45.152Z,30.83
2023-05-09T19:13:14.719Z,31.67
2023-05-09T19:15:43.879Z,30.90
2023-05-09T19:18:14.418Z,30.90
2023-05-09T19:20:41.736Z,30.59
2023-05-09T19:23:08.955Z,30.67
2023-05-09T19:25:37.344Z,31.33
2023-05-09T19:28:04.458Z,31.47
2023-05-09T19:30:31.630Z,32.84
2023-05-09T19:32:59.243Z,32.58
2023-05-09T19:35:26.452Z,33.64
2023-05-09T19:37:53.483Z,32.68
2023-05-09T19:40:21.767Z,32.88
2023-05-09T19:42:53.205Z,33.03
2023-05-09T19:45:21.025Z,33.03
2023-05-09T19:47:49.326Z,33.30
2023-05-09T19:50:17.168Z,34.16
2023-05-09T19:52:44.563Z,34.31
2023-05-09T19:55:13.540Z,33.58
2023-05-09T19:57:40.687Z,34.03
2023-05-09T20:00:10.031Z,34.22
2023-05-09T20:02:39.313Z,33.61
2023-05-09T20:05:07.025Z,34.11
2023-05-09T20:07:33.917Z,34.34
2023-05-09T20:10:18.421Z,34.32
2023-05-09T20:12:53.866Z,33.81
2023-05-09T20:15:20.819Z,34.42
2023-05-09T20:17:48.427Z,34.76
2023-05-09T20:20:16.118Z,35.61
2023-05-09T20:22:43.420Z,34.93
2023-05-09T20:25:10.545Z,35.64
2023-05-09T20:27:37.811Z,35.56
2023-05-09T20:30:05.349Z,35.50
2023-05-09T20:32:32.554Z,35.38
2023-05-09T20:34:59.629Z,35.96
2023-05-09T20:37:26.599Z,36.06
2023-05-09T20:39:53.431Z,35.69
2023-05-09T20:42:20.395Z,36.90
2023-05-09T20:44:57.098Z,36.51
2023-05-09T20:47:24.655Z,36.18
2023-05-09T20:49:51.499Z,36.40
2023-05-09T20:52:18.471Z,36.48
2023-05-09T20:54:47.153Z,36.47
2023-05-09T20:57:13.974Z,35.82
2023-05-09T20:59:41.037Z,35.52
2023-05-09T21:02:08.448Z,35.43
2023-05-09T21:04:35.475Z,35.20
2023-05-09T21:07:02.319Z,35.18
2023-05-09T21:09:29.394Z,35.56
2023-05-09T21:11:56.126Z,35.39
2023-05-09T21:14:23.266Z,35.71
2023-05-09T21:16:51.710Z,35.31
2023-05-09T21:19:18.483Z,35.48
2023-05-09T21:21:45.246Z,35.30
2023-05-09T21:24:12.276Z,35.03
2023-05-09T21:26:39.019Z,35.42
2023-05-09T21:29:06.712Z,35.17
2023-05-09T21:31:34.342Z,35.33
2023-05-09T21:34:01.299Z,36.11
2023-05-09T21:36:28.249Z,35.38
2023-05-09T21:38:55.351Z,35.37
2023-05-09T21:41:22.034Z,36.69
2023-05-09T21:43:48.811Z,36.00
2023-05-09T21:46:16.127Z,35.94
2023-05-09T21:48:43.204Z,36.83
2023-05-09T21:51:09.920Z,36.06
2023-05-09T21:53:36.842Z,36.88
2023-05-09T21:56:03.809Z,36.96
2023-05-09T21:58:30.540Z,36.81
2023-05-09T22:00:57.426Z,35.93
2023-05-09T22:03:24.486Z,36.96
2023-05-09T22:05:51.257Z,37.00
2023-05-09T22:08:18.337Z,36.29
2023-05-09T22:10:45.034Z,36.69
2023-05-09T22:13:11.820Z,36.22
2023-05-09T22:15:38.699Z,37.01
2023-05-09T22:18:05.552Z,36.80
2023-05-09T22:20:32.284Z,36.47
2023-05-09T22:22:59.071Z,36.76
2023-05-09T22:25:25.869Z,37.19
2023-05-09T22:27:53.491Z,37.20
2023-05-09T22:30:20.349Z,37.43
2023-05-09T22:32:47.052Z,36.72
2023-05-09T22:35:13.755Z,37.25
2023-05-09T22:37:40.506Z,37.30
2023-05-09T22:40:07.834Z,37.25
2023-05-09T22:42:34.839Z,37.30
2023-05-09T22:45:02.167Z,37.72
2023-05-09T22:47:28.972Z,37.82
2023-05-09T22:49:55.920Z,37.92
2023-05-09T22:52:22.710Z,37.10
2023-05-09T22:54:49.512Z,37.52
2023-05-09T22:57:18.015Z,37.88
2023-05-09T22:59:45.367Z,37.90
2023-05-09T23:02:12.805Z,37.63
2023-05-09T23:04:39.462Z,37.88
2023-05-09T23:07:06.344Z,38.15
2023-05-09T23:09:33.224Z,37.46
2023-05-09T23:12:01.166Z,38.08
2023-05-09T23:14:28.321Z,38.00
2023-05-09T23:16:56.100Z,37.17
2023-05-09T23:19:23.134Z,37.96
2023-05-09T23:21:50.569Z,37.33
2023-05-09T23:24:17.560Z,37.66
2023-05-09T23:26:44.681Z,38.88
2023-05-09T23:29:11.779Z,37.55
2023-05-09T23:31:39.155Z,37.28
2023-05-09T23:34:05.826Z,37.61
2023-05-09T23:36:32.903Z,37.30
2023-05-09T23:38:59.636Z,37.70
2023-05-09T23:41:26.492Z,37.71
2023-05-09T23:43:53.287Z,37.63
2023-05-09T23:46:19.974Z,37.78
2023-05-09T23:48:46.743Z,37.32
2023-05-09T23:51:13.524Z,37.58
2023-05-09T23:53:40.182Z,38.12
2023-05-09T23:56:07.326Z,37.62
2023-05-09T23:58:34.169Z,37.24
